Time;durP1;ratioP1;P1;durP2;ratioP2;P2;SDS_P1;SDS_P2;PMS_P1;PMS_P2;Temp;Humidity;BMP_temperature;BMP_pressure;BME280_temperature;BME280_humidity;BME280_pressure;Samples;Min_cycle;Max_cycle;Signal;HPM_P1;HPM_P2
2022/03/19 00:02:02;;;;;;;24.17;6.40;;;6.60;99.90;;;;;;5006202;28;20706;-80
2022/03/19 00:04:29;;;;;;;11.07;5.40;;;6.60;99.90;;;;;;5007088;28;20217;-79
2022/03/19 00:06:56;;;;;;;16.97;5.80;;;6.60;99.90;;;;;;5017773;28;20248;-79
2022/03/19 00:09:23;;;;;;;18.33;5.13;;;6.60;99.90;;;;;;4996141;28;20197;-79
2022/03/19 00:11:50;;;;;;;16.87;5.43;;;6.50;99.90;;;;;;5010304;28;20217;-80
2022/03/19 00:14:16;;;;;;;16.20;5.00;;;6.50;99.90;;;;;;5003596;28;20278;-80
2022/03/19 00:16:43;;;;;;;11.00;5.20;;;6.50;99.90;;;;;;4988417;28;20239;-78
2022/03/19 00:19:10;;;;;;;14.57;5.30;;;6.50;99.90;;;;;;5006923;28;20958;-80
2022/03/19 00:21:38;;;;;;;16.30;5.30;;;6.50;99.90;;;;;;5004117;28;20539;-80
2022/03/19 00:24:06;;;;;;;16.20;5.37;;;6.40;99.90;;;;;;5002189;28;20236;-79
2022/03/19 00:26:33;;;;;;;14.07;5.23;;;6.40;99.90;;;;;;5007215;28;20611;-79
2022/03/19 00:29:00;;;;;;;19.63;5.10;;;6.40;99.90;;;;;;5005520;28;20240;-79
2022/03/19 00:31:28;;;;;;;16.90;5.87;;;6.40;99.90;;;;;;4990443;28;20315;-80
2022/03/19 00:33:56;;;;;;;13.10;5.10;;;6.40;99.90;;;;;;5004402;28;20226;-80
2022/03/19 00:36:23;;;;;;;15.67;5.20;;;6.30;99.90;;;;;;5004031;28;20220;-80
2022/03/19 00:38:50;;;;;;;19.80;4.80;;;6.30;99.90;;;;;;5005956;28;20500;-80
2022/03/19 00:41:16;;;;;;;14.97;3.97;;;6.20;99.90;;;;;;5003365;28;20306;-80
2022/03/19 00:43:43;;;;;;;13.30;4.43;;;6.20;99.90;;;;;;4998467;28;20240;-81
2022/03/19 00:46:11;;;;;;;12.90;4.77;;;6.20;99.90;;;;;;4994517;28;20253;-79
2022/03/19 00:48:38;;;;;;;12.07;4.43;;;6.20;99.90;;;;;;5009624;28;20533;-79
2022/03/19 00:51:05;;;;;;;14.83;5.23;;;6.20;99.90;;;;;;5006134;28;20346;-79
2022/03/19 00:53:32;;;;;;;18.67;5.40;;;6.10;99.90;;;;;;5005198;28;20199;-79
2022/03/19 00:55:59;;;;;;;14.33;4.60;;;6.10;99.90;;;;;;5002910;28;20290;-80
2022/03/19 00:58:26;;;;;;;10.73;4.33;;;6.10;99.90;;;;;;5007788;28;20226;-80
2022/03/19 01:00:53;;;;;;;19.70;5.40;;;6.20;99.90;;;;;;4989145;28;20319;-80
2022/03/19 01:03:21;;;;;;;11.13;4.70;;;6.00;99.90;;;;;;5004111;28;20220;-80
2022/03/19 01:05:48;;;;;;;17.23;4.80;;;6.00;99.90;;;;;;5005075;28;20213;-79
2022/03/19 01:08:15;;;;;;;12.67;4.50;;;6.00;99.90;;;;;;5004862;28;20619;-80
2022/03/19 01:10:41;;;;;;;13.40;4.63;;;6.00;99.90;;;;;;5000856;28;20791;-80
2022/03/19 01:13:09;;;;;;;16.33;4.80;;;5.90;99.90;;;;;;5009732;28;20684;-80
2022/03/19 01:15:36;;;;;;;15.80;4.50;;;5.90;99.90;;;;;;4989347;28;20262;-81
2022/03/19 01:18:03;;;;;;;15.13;5.23;;;5.80;99.90;;;;;;5003005;28;20221;-81
2022/03/19 01:20:30;;;;;;;19.03;5.43;;;5.90;99.90;;;;;;4991524;28;20217;-79
2022/03/19 01:22:57;;;;;;;17.53;4.90;;;5.80;99.90;;;;;;5003438;28;20213;-80
2022/03/19 01:25:24;;;;;;;20.50;5.23;;;5.70;99.90;;;;;;5001417;28;20204;-79
2022/03/19 01:27:51;;;;;;;21.20;4.70;;;5.70;99.90;;;;;;5006596;28;20340;-78
2022/03/19 01:30:21;;;;;;;17.23;4.80;;;5.80;99.90;;;;;;5006784;28;20980;-81
2022/03/19 01:32:49;;;;;;;16.00;4.77;;;5.60;99.90;;;;;;5001115;28;20289;-81
2022/03/19 01:35:17;;;;;;;13.60;4.57;;;5.60;99.90;;;;;;5010243;28;20335;-81
2022/03/19 01:37:44;;;;;;;11.83;4.50;;;5.60;99.90;;;;;;5002622;28;20616;-81
2022/03/19 01:40:12;;;;;;;17.60;4.60;;;5.60;99.90;;;;;;5008618;28;20235;-81
2022/03/19 01:42:45;;;;;;;18.57;4.90;;;5.60;99.90;;;;;;4990603;28;20265;-80
2022/03/19 01:45:20;;;;;;;8.97;4.33;;;5.50;99.90;;;;;;5007190;28;20662;-82
2022/03/19 01:47:48;;;;;;;19.13;4.90;;;5.60;99.90;;;;;;5008008;28;20204;-82
2022/03/19 01:50:17;;;;;;;12.33;4.63;;;5.50;99.90;;;;;;5006614;28;20217;-80
2022/03/19 01:52:44;;;;;;;17.40;5.00;;;5.50;99.90;;;;;;5004871;28;20245;-80
2022/03/19 01:55:13;;;;;;;11.83;4.37;;;5.40;99.90;;;;;;4990874;28;20207;-81
2022/03/19 01:57:44;;;;;;;15.63;4.90;;;5.40;99.90;;;;;;5005190;28;20301;-81
2022/03/19 02:00:17;;;;;;;14.10;4.97;;;5.50;99.90;;;;;;5003164;28;20595;-80
2022/03/19 02:02:47;;;;;;;16.73;5.07;;;5.40;99.90;;;;;;5006601;28;20239;-80
2022/03/19 02:05:18;;;;;;;17.23;4.87;;;5.40;99.90;;;;;;5003436;28;20588;-81
2022/03/19 02:07:46;;;;;;;13.80;5.03;;;5.40;99.90;;;;;;5006253;28;20203;-80
2022/03/19 02:10:14;;;;;;;15.43;4.87;;;5.40;99.90;;;;;;4998447;28;20213;-80
2022/03/19 02:12:41;;;;;;;13.17;4.50;;;5.30;99.90;;;;;;5004415;28;20206;-79
2022/03/19 02:15:09;;;;;;;17.60;5.60;;;5.30;99.90;;;;;;5003226;28;20838;-80
2022/03/19 02:17:36;;;;;;;18.17;5.60;;;5.20;99.90;;;;;;5007583;28;20329;-84
2022/03/19 02:20:04;;;;;;;17.87;5.20;;;5.20;99.90;;;;;;5003187;28;20199;-81
2022/03/19 02:22:31;;;;;;;10.53;4.60;;;5.20;99.90;;;;;;4989990;28;20236;-82
2022/03/19 02:27:45;;;;;;;22.17;5.67;;;5.10;99.90;;;;;;5006596;28;20206;-80
2022/03/19 02:30:15;;;;;;;20.27;5.43;;;5.00;99.90;;;;;;5003854;28;20526;-79
2022/03/19 02:32:44;;;;;;;16.47;5.50;;;5.00;99.90;;;;;;5003546;28;20253;-81
2022/03/19 02:35:11;;;;;;;16.50;5.40;;;5.00;99.90;;;;;;5000871;28;20333;-80
2022/03/19 02:37:40;;;;;;;20.10;5.73;;;4.90;99.90;;;;;;4985395;28;20271;-81
2022/03/19 02:40:12;;;;;;;16.23;4.97;;;4.90;99.90;;;;;;5000155;28;20262;-80
2022/03/19 02:42:43;;;;;;;19.23;4.90;;;4.90;99.90;;;;;;5001434;28;20247;-80
2022/03/19 02:45:10;;;;;;;17.13;6.00;;;4.90;99.90;;;;;;5001671;28;20331;-79
2022/03/19 02:47:57;;;;;;;12.27;5.43;;;4.90;99.90;;;;;;5004849;28;20218;-80
2022/03/19 02:50:30;;;;;;;23.00;6.07;;;4.80;99.90;;;;;;5002747;28;20212;-78
2022/03/19 02:52:58;;;;;;;19.67;6.10;;;4.80;99.90;;;;;;5001394;28;20296;-79
2022/03/19 02:55:29;;;;;;;14.60;5.80;;;4.80;99.90;;;;;;5005362;28;20267;-80
2022/03/19 02:57:56;;;;;;;20.83;5.60;;;4.80;99.90;;;;;;5006652;28;20218;-80
2022/03/19 03:00:23;;;;;;;19.07;6.20;;;4.80;99.90;;;;;;5002820;28;20314;-80
2022/03/19 03:02:50;;;;;;;19.97;6.03;;;4.80;99.90;;;;;;5005512;28;20264;-80
2022/03/19 03:05:17;;;;;;;19.83;5.93;;;4.70;99.90;;;;;;5003768;28;20204;-80
2022/03/19 03:07:44;;;;;;;19.77;5.73;;;4.70;99.90;;;;;;5004450;28;20264;-80
2022/03/19 03:10:14;;;;;;;21.13;6.20;;;4.70;99.90;;;;;;4997350;28;20202;-80
2022/03/19 03:12:41;;;;;;;18.20;6.33;;;4.70;99.90;;;;;;5001180;28;20299;-79
2022/03/19 03:15:08;;;;;;;19.93;6.23;;;4.60;99.90;;;;;;5004740;28;20217;-82
2022/03/19 03:17:35;;;;;;;19.90;6.30;;;4.60;99.90;;;;;;5005089;28;20287;-80
2022/03/19 03:20:03;;;;;;;16.40;6.70;;;4.60;99.90;;;;;;5002217;28;20693;-80
2022/03/19 03:22:31;;;;;;;20.83;6.47;;;4.60;99.90;;;;;;5006793;28;20250;-80
2022/03/19 03:24:58;;;;;;;19.90;6.93;;;4.50;99.90;;;;;;5002947;28;20208;-81
2022/03/19 03:27:25;;;;;;;21.37;6.03;;;4.50;99.90;;;;;;5005447;28;20383;-80
2022/03/19 03:29:52;;;;;;;19.03;6.30;;;4.50;99.90;;;;;;4989293;28;20291;-79
2022/03/19 03:32:19;;;;;;;24.93;7.20;;;4.40;99.90;;;;;;5007956;28;20347;-80
2022/03/19 03:34:46;;;;;;;20.53;6.20;;;4.40;99.90;;;;;;5000840;28;20251;-80
2022/03/19 03:37:13;;;;;;;17.00;7.63;;;4.50;99.90;;;;;;5004044;28;20634;-80
2022/03/19 03:39:40;;;;;;;21.77;7.43;;;4.40;99.90;;;;;;5001215;28;20206;-80
2022/03/19 03:42:07;;;;;;;21.37;7.23;;;4.40;99.90;;;;;;5003025;28;20328;-80
2022/03/19 03:44:34;;;;;;;22.53;7.47;;;4.30;99.90;;;;;;5003182;28;20263;-79
2022/03/19 03:47:02;;;;;;;24.23;7.43;;;4.30;99.90;;;;;;5000016;28;20234;-80
2022/03/19 03:49:29;;;;;;;25.07;7.40;;;4.30;99.90;;;;;;5002141;28;20299;-80
2022/03/19 03:51:56;;;;;;;20.93;6.80;;;4.30;99.90;;;;;;5001683;28;20203;-79
2022/03/19 03:54:23;;;;;;;16.73;6.90;;;4.30;99.90;;;;;;4991480;28;20289;-80
2022/03/19 03:56:50;;;;;;;17.57;7.63;;;4.20;99.90;;;;;;4999912;28;20638;-79
2022/03/19 03:59:17;;;;;;;21.07;7.57;;;4.20;99.90;;;;;;5004497;28;20209;-79
2022/03/19 04:01:44;;;;;;;23.33;8.00;;;4.20;99.90;;;;;;5005805;28;20694;-78
2022/03/19 04:04:11;;;;;;;18.57;7.43;;;4.20;99.90;;;;;;5001537;28;20218;-80
2022/03/19 04:06:38;;;;;;;24.50;7.50;;;4.20;99.90;;;;;;5000382;28;20730;-80
2022/03/19 04:09:05;;;;;;;16.90;7.67;;;4.10;99.90;;;;;;4996532;28;20294;-80
2022/03/19 04:11:31;;;;;;;18.47;8.10;;;4.20;99.90;;;;;;4998279;28;20302;-80
2022/03/19 04:13:59;;;;;;;15.00;7.03;;;4.10;99.90;;;;;;4989825;28;20604;-80
2022/03/19 04:16:26;;;;;;;23.50;7.40;;;4.10;99.90;;;;;;5000373;28;20681;-80
2022/03/19 04:18:53;;;;;;;19.60;7.40;;;4.00;99.90;;;;;;5002638;28;20616;-80
2022/03/19 04:21:21;;;;;;;20.03;8.40;;;4.00;99.90;;;;;;5002864;28;20325;-80
2022/03/19 04:23:48;;;;;;;20.53;7.37;;;4.00;99.90;;;;;;5000340;28;20247;-80
2022/03/19 04:26:15;;;;;;;21.03;8.13;;;4.00;99.90;;;;;;4999314;28;20209;-80
2022/03/19 04:28:42;;;;;;;16.53;8.03;;;3.90;99.90;;;;;;5000438;28;20690;-79
2022/03/19 04:31:08;;;;;;;24.67;7.17;;;3.90;99.90;;;;;;5004470;28;20443;-79
2022/03/19 04:33:35;;;;;;;23.10;7.10;;;3.90;99.90;;;;;;5003152;28;20281;-79
2022/03/19 04:38:47;;;;;;;25.27;7.90;;;3.80;99.90;;;;;;5002049;28;20737;-79
2022/03/19 04:41:14;;;;;;;21.97;7.77;;;3.70;99.90;;;;;;5005416;28;20302;-80
2022/03/19 04:43:41;;;;;;;21.30;8.23;;;3.60;99.90;;;;;;5002082;28;20214;-80
2022/03/19 04:46:08;;;;;;;17.57;7.10;;;3.60;99.90;;;;;;5009710;28;20703;-78
2022/03/19 04:48:35;;;;;;;17.37;7.77;;;3.60;99.90;;;;;;5001934;28;20257;-80
2022/03/19 04:51:02;;;;;;;29.13;8.80;;;3.50;99.90;;;;;;5008727;28;20646;-80
2022/03/19 04:53:29;;;;;;;16.50;7.87;;;3.50;99.90;;;;;;5004286;28;20206;-79
2022/03/19 04:55:56;;;;;;;25.93;10.13;;;3.50;99.90;;;;;;5004390;28;20207;-80
2022/03/19 04:58:23;;;;;;;25.60;9.33;;;3.40;99.90;;;;;;5007370;28;20405;-80
2022/03/19 05:00:50;;;;;;;25.70;9.90;;;3.40;99.90;;;;;;5001494;28;20314;-80
2022/03/19 05:03:16;;;;;;;26.00;8.63;;;3.50;99.90;;;;;;5008985;28;20289;-80
2022/03/19 05:05:43;;;;;;;21.70;9.57;;;3.30;99.90;;;;;;5005193;28;20285;-79
2022/03/19 05:08:10;;;;;;;25.20;9.07;;;3.30;99.90;;;;;;5005896;28;20276;-80
2022/03/19 05:13:23;;;;;;;26.47;9.00;;;3.20;99.90;;;;;;5005381;28;20242;-80
2022/03/19 05:15:49;;;;;;;24.27;8.10;;;3.20;99.90;;;;;;5005747;28;20227;-80
2022/03/19 05:18:16;;;;;;;16.73;7.70;;;3.10;99.90;;;;;;5005164;28;20214;-80
2022/03/19 05:20:43;;;;;;;21.27;8.43;;;3.10;99.90;;;;;;5005359;28;20203;-79
2022/03/19 05:23:10;;;;;;;21.37;8.50;;;3.00;99.90;;;;;;4991944;28;20273;-79
2022/03/19 05:25:38;;;;;;;26.60;9.47;;;3.00;99.90;;;;;;5004486;28;20290;-79
2022/03/19 05:28:06;;;;;;;19.07;9.60;;;3.00;99.90;;;;;;5006158;28;20210;-81
2022/03/19 05:30:51;;;;;;;26.87;9.57;;;3.00;99.90;;;;;;4995298;28;20582;-79
2022/03/19 05:33:18;;;;;;;34.77;11.17;;;2.90;99.90;;;;;;5005247;28;20305;-79
2022/03/19 05:35:45;;;;;;;31.27;11.83;;;2.90;99.90;;;;;;5000986;28;20225;-79
2022/03/19 05:38:12;;;;;;;24.27;10.50;;;3.00;99.90;;;;;;5003837;28;20565;-80
2022/03/19 05:40:39;;;;;;;27.57;10.10;;;2.90;99.90;;;;;;5004794;28;20213;-78
2022/03/19 05:43:06;;;;;;;23.77;10.73;;;3.00;99.90;;;;;;4986188;28;20244;-79
2022/03/19 05:45:34;;;;;;;21.77;11.20;;;3.00;99.90;;;;;;5008756;28;20230;-78
2022/03/19 05:48:01;;;;;;;23.53;11.67;;;3.00;99.90;;;;;;5002529;28;20272;-79
2022/03/19 05:50:28;;;;;;;32.37;11.63;;;3.00;99.90;;;;;;5007255;28;20212;-80
2022/03/19 05:52:55;;;;;;;34.97;11.20;;;3.00;99.90;;;;;;5005325;28;20287;-80
2022/03/19 05:55:22;;;;;;;27.53;10.43;;;3.00;99.90;;;;;;5005198;28;20292;-79
2022/03/19 05:57:48;;;;;;;25.83;11.20;;;3.00;99.90;;;;;;5003825;28;20207;-79
2022/03/19 06:00:16;;;;;;;28.77;10.73;;;3.00;99.90;;;;;;5006535;28;20221;-79
2022/03/19 06:02:44;;;;;;;25.50;11.10;;;3.10;99.90;;;;;;5006711;28;20296;-80
2022/03/19 06:05:16;;;;;;;22.77;10.97;;;3.10;99.90;;;;;;5001127;28;20234;-81
2022/03/19 06:07:42;;;;;;;25.90;11.57;;;3.10;99.90;;;;;;5005554;28;20224;-81
2022/03/19 06:10:10;;;;;;;27.60;11.63;;;3.20;99.90;;;;;;5001592;28;20244;-79
2022/03/19 06:12:37;;;;;;;27.90;11.60;;;3.20;99.90;;;;;;5005679;28;20222;-79
2022/03/19 06:15:04;;;;;;;23.80;11.23;;;3.20;99.90;;;;;;4998705;28;20198;-79
2022/03/19 06:17:31;;;;;;;26.20;11.30;;;3.30;99.90;;;;;;5002981;28;20228;-80
2022/03/19 06:19:58;;;;;;;23.90;10.07;;;3.30;99.90;;;;;;5002602;28;20942;-80
2022/03/19 06:22:24;;;;;;;27.00;11.60;;;3.40;99.90;;;;;;4999272;28;20699;-80
2022/03/19 06:24:51;;;;;;;25.77;10.43;;;3.40;99.90;;;;;;5003053;28;20253;-79
2022/03/19 06:27:18;;;;;;;28.23;10.47;;;3.50;99.90;;;;;;4991509;28;20208;-81
2022/03/19 06:29:45;;;;;;;26.73;10.90;;;3.50;99.90;;;;;;4998585;28;20715;-80
2022/03/19 06:32:12;;;;;;;28.77;10.03;;;3.60;99.90;;;;;;4991736;28;20224;-78
2022/03/19 06:34:38;;;;;;;23.57;9.20;;;3.60;99.90;;;;;;5003712;28;20266;-81
2022/03/19 06:37:20;;;;;;;24.77;8.73;;;3.70;99.90;;;;;;5002171;28;20207;-79
2022/03/19 06:39:54;;;;;;;21.30;10.03;;;3.80;99.90;;;;;;5002165;28;20199;-81
2022/03/19 06:42:22;;;;;;;24.03;10.27;;;4.00;99.90;;;;;;5002538;28;20584;-79
2022/03/19 06:44:49;;;;;;;20.93;9.20;;;4.20;99.90;;;;;;4989441;28;20293;-82
2022/03/19 06:47:16;;;;;;;26.30;9.03;;;4.40;99.90;;;;;;5003172;28;20265;-80
2022/03/19 06:49:43;;;;;;;21.43;8.43;;;4.60;99.90;;;;;;5005313;28;20706;-80
2022/03/19 06:52:10;;;;;;;14.77;7.90;;;4.80;99.90;;;;;;5005437;28;20611;-79
2022/03/19 06:54:37;;;;;;;18.63;7.73;;;4.90;99.90;;;;;;5004131;28;20536;-81
2022/03/19 06:57:04;;;;;;;14.27;7.77;;;5.10;99.90;;;;;;5003287;28;20628;-82
2022/03/19 06:59:31;;;;;;;19.73;8.73;;;5.30;99.90;;;;;;4991688;28;20239;-82
2022/03/19 07:01:59;;;;;;;17.23;7.20;;;5.60;99.90;;;;;;4988720;28;20710;-80
2022/03/19 07:04:28;;;;;;;19.07;6.87;;;7.30;99.90;;;;;;5004594;28;20223;-81
2022/03/19 07:06:55;;;;;;;12.47;6.03;;;7.30;99.90;;;;;;4988604;28;20243;-81
2022/03/19 07:09:28;;;;;;;10.83;5.33;;;7.90;99.90;;;;;;5001792;28;20299;-82
2022/03/19 07:11:55;;;;;;;17.07;5.87;;;8.60;99.90;;;;;;4987674;28;20820;-81
2022/03/19 07:14:22;;;;;;;15.53;6.10;;;9.10;99.90;;;;;;5008512;28;20608;-79
2022/03/19 07:16:50;;;;;;;12.50;5.33;;;9.50;99.90;;;;;;5005809;28;20345;-80
2022/03/19 07:19:17;;;;;;;14.93;5.60;;;9.80;99.90;;;;;;5006914;28;20228;-81
2022/03/19 07:21:43;;;;;;;15.43;5.33;;;10.20;99.90;;;;;;4999929;28;20243;-80
2022/03/19 07:24:10;;;;;;;18.60;5.40;;;;;;;;;;4987380;28;21043;-80
2022/03/19 07:26:37;;;;;;;12.40;5.23;;;10.70;99.90;;;;;;5005713;28;20739;-82
2022/03/19 07:29:04;;;;;;;16.53;5.50;;;11.00;99.90;;;;;;5005659;28;20652;-81
2022/03/19 07:31:31;;;;;;;14.77;5.23;;;11.30;99.90;;;;;;4991367;28;20869;-82
2022/03/19 07:33:59;;;;;;;12.30;5.00;;;11.70;99.90;;;;;;4993724;28;20662;-82
2022/03/19 07:36:26;;;;;;;10.50;5.40;;;11.80;99.90;;;;;;5006093;28;20282;-80
2022/03/19 07:38:53;;;;;;;12.87;4.80;;;11.90;99.90;;;;;;5006854;28;20214;-81
2022/03/19 07:44:05;;;;;;;14.23;4.40;;;12.10;99.90;;;;;;5002698;28;20240;-80
2022/03/19 07:46:34;;;;;;;17.77;4.73;;;12.20;99.90;;;;;;5011227;28;20238;-81
2022/03/19 07:49:02;;;;;;;10.97;4.03;;;12.30;99.90;;;;;;5008267;28;20295;-85
2022/03/19 07:51:29;;;;;;;8.63;4.23;;;12.30;99.90;;;;;;5005122;28;20409;-83
2022/03/19 07:53:57;;;;;;;11.03;4.60;;;12.10;99.90;;;;;;4990041;28;20289;-82
2022/03/19 07:56:24;;;;;;;14.73;5.20;;;12.20;99.90;;;;;;4989985;28;20227;-83
2022/03/19 07:58:52;;;;;;;15.20;4.83;;;12.20;99.90;;;;;;4999994;28;20215;-81
2022/03/19 08:01:20;;;;;;;10.20;4.17;;;12.30;99.90;;;;;;5006341;28;20222;-82
2022/03/19 08:03:48;;;;;;;7.50;3.83;;;12.30;99.90;;;;;;4988386;28;20233;-82
2022/03/19 08:06:15;;;;;;;13.57;3.90;;;12.40;99.90;;;;;;5000866;28;20229;-82
2022/03/19 08:08:41;;;;;;;12.73;4.60;;;12.20;99.90;;;;;;5004624;28;20214;-83
2022/03/19 08:11:09;;;;;;;9.27;4.00;;;12.60;99.90;;;;;;5003142;28;20302;-83
2022/03/19 08:13:36;;;;;;;13.00;4.20;;;12.70;99.90;;;;;;4989819;28;20699;-82
2022/03/19 08:16:03;;;;;;;14.43;5.13;;;12.60;99.90;;;;;;4997068;28;20495;-81
2022/03/19 08:18:30;;;;;;;6.70;3.50;;;12.30;99.90;;;;;;5010116;28;20363;-83
2022/03/19 08:21:01;;;;;;;7.70;3.47;;;12.30;99.90;;;;;;5007736;28;20291;-83
2022/03/19 08:23:28;;;;;;;7.87;3.63;;;12.50;99.90;;;;;;5006014;28;20230;-85
2022/03/19 08:25:55;;;;;;;9.43;3.90;;;12.60;99.90;;;;;;5003985;28;20211;-84
2022/03/19 08:28:22;;;;;;;10.57;4.00;;;12.70;99.90;;;;;;4993908;28;20580;-84
2022/03/19 08:30:48;;;;;;;9.10;3.70;;;12.60;99.90;;;;;;5003830;28;20246;-82
2022/03/19 08:33:15;;;;;;;9.43;3.70;;;12.40;99.90;;;;;;4993066;28;20614;-83
2022/03/19 08:35:42;;;;;;;7.63;3.63;;;12.30;99.90;;;;;;5005660;28;20313;-82
2022/03/19 08:40:57;;;;;;;8.90;4.27;;;12.40;99.90;;;;;;5005932;28;20300;-82
2022/03/19 08:43:24;;;;;;;9.70;3.70;;;12.30;99.90;;;;;;5010016;28;20291;-83
2022/03/19 08:45:51;;;;;;;7.63;3.37;;;12.50;99.90;;;;;;5007392;28;20226;-82
2022/03/19 08:48:18;;;;;;;7.53;3.03;;;12.70;99.90;;;;;;5010869;28;20809;-80
2022/03/19 08:50:46;;;;;;;14.77;4.07;;;13.00;99.90;;;;;;5006916;28;20210;-81
2022/03/19 08:53:14;;;;;;;8.77;3.23;;;13.10;99.90;;;;;;5009191;28;20202;-81
2022/03/19 08:55:41;;;;;;;11.87;3.60;;;13.30;99.90;;;;;;5009232;28;20207;-81
2022/03/19 08:58:08;;;;;;;9.53;3.47;;;13.20;99.90;;;;;;5004115;28;20197;-81
2022/03/19 09:00:37;;;;;;;8.47;2.97;;;13.20;99.90;;;;;;5003669;28;20629;-80
2022/03/19 09:03:03;;;;;;;6.73;3.30;;;13.20;99.90;;;;;;5008221;28;20226;-80
2022/03/19 09:05:32;;;;;;;9.73;3.30;;;13.10;99.90;;;;;;5002861;28;20630;-79
2022/03/19 09:07:59;;;;;;;8.63;3.00;;;12.90;99.90;;;;;;5001617;28;20276;-81
2022/03/19 09:10:26;;;;;;;4.27;2.60;;;12.80;99.90;;;;;;4986110;28;20286;-83
2022/03/19 09:12:55;;;;;;;5.93;3.07;;;12.70;99.90;;;;;;5001746;28;20203;-83
2022/03/19 09:15:22;;;;;;;8.43;3.40;;;12.60;99.90;;;;;;4999551;28;20820;-82
2022/03/19 09:17:49;;;;;;;8.27;2.83;;;12.70;99.90;;;;;;4998552;28;20211;-81
2022/03/19 09:20:16;;;;;;;8.63;3.20;;;12.80;99.90;;;;;;5000588;28;20211;-81
2022/03/19 09:22:43;;;;;;;9.87;3.10;;;12.80;99.90;;;;;;5002109;28;20280;-84
2022/03/19 09:25:10;;;;;;;7.67;3.00;;;12.70;99.90;;;;;;5003690;28;20677;-82
2022/03/19 09:27:39;;;;;;;5.77;3.20;;;12.60;99.90;;;;;;4979002;28;20203;-82
2022/03/19 09:30:08;;;;;;;8.33;2.63;;;12.70;99.90;;;;;;5003284;28;20721;-83
2022/03/19 09:32:36;;;;;;;7.53;2.67;;;12.80;99.30;;;;;;5001051;28;20210;-83
2022/03/19 09:35:03;;;;;;;5.63;3.00;;;12.90;99.00;;;;;;5002777;28;20234;-83
2022/03/19 09:37:31;;;;;;;8.40;2.43;;;13.10;98.60;;;;;;4990624;28;20207;-85
2022/03/19 09:39:58;;;;;;;11.20;3.77;;;13.20;98.40;;;;;;4989016;28;20213;-84
2022/03/19 09:42:32;;;;;;;9.20;3.30;;;13.00;98.60;;;;;;4995358;28;20230;-82
2022/03/19 09:44:59;;;;;;;8.93;2.70;;;13.00;99.40;;;;;;5001888;28;20210;-82
2022/03/19 09:47:26;;;;;;;7.83;2.80;;;13.00;99.90;;;;;;5007538;28;20217;-86
2022/03/19 09:49:56;;;;;;;8.17;2.60;;;13.00;99.70;;;;;;5003351;28;20294;-81
2022/03/19 09:52:27;;;;;;;6.43;2.47;;;13.10;98.90;;;;;;5008344;28;20198;-82
2022/03/19 09:54:59;;;;;;;9.87;3.00;;;13.00;97.80;;;;;;4993909;28;20321;-83
2022/03/19 09:57:26;;;;;;;7.03;2.70;;;12.80;97.50;;;;;;4990186;28;20209;-82
2022/03/19 09:59:52;;;;;;;6.93;2.60;;;12.70;97.60;;;;;;4990977;28;20710;-81
2022/03/19 10:02:19;;;;;;;4.40;2.27;;;12.70;98.90;;;;;;5007493;28;20202;-83
2022/03/19 10:04:51;;;;;;;5.27;2.50;;;12.80;97.80;;;;;;5003460;28;20744;-82
2022/03/19 10:10:14;;;;;;;6.13;2.53;;;13.00;96.10;;;;;;5003099;28;20214;-82
2022/03/19 10:12:44;;;;;;;7.33;3.23;;;12.80;96.70;;;;;;5003038;28;20206;-82
2022/03/19 10:15:11;;;;;;;4.77;2.10;;;12.70;96.80;;;;;;5004111;28;20620;-82
2022/03/19 10:17:39;;;;;;;8.23;2.60;;;12.60;96.80;;;;;;4999965;28;20669;-82
2022/03/19 10:20:11;;;;;;;8.47;3.03;;;12.70;96.80;;;;;;5006570;28;20603;-82
2022/03/19 10:22:44;;;;;;;11.97;3.87;;;12.60;96.40;;;;;;5004080;28;20273;-82
2022/03/19 10:25:13;;;;;;;7.33;2.77;;;12.70;96.40;;;;;;5006088;28;20254;-84
2022/03/19 10:27:43;;;;;;;6.47;2.40;;;12.70;96.30;;;;;;5002528;28;20203;-85
2022/03/19 10:30:16;;;;;;;6.27;2.40;;;12.80;94.80;;;;;;4988420;28;20606;-83
2022/03/19 10:32:47;;;;;;;7.37;2.97;;;12.80;94.00;;;;;;4980600;28;20284;-85
2022/03/19 10:35:28;;;;;;;6.60;2.77;;;12.60;94.90;;;;;;5006431;28;20234;-82
2022/03/19 10:37:56;;;;;;;7.77;2.20;;;12.50;95.10;;;;;;5000973;28;20210;-82
2022/03/19 10:40:37;;;;;;;6.23;2.20;;;12.30;95.70;;;;;;4988670;28;20257;-84
2022/03/19 10:43:06;;;;;;;10.10;2.27;;;12.10;95.20;;;;;;4999094;28;20304;-82
2022/03/19 10:45:40;;;;;;;6.83;2.27;;;12.10;94.80;;;;;;4985820;28;20774;-84
2022/03/19 10:48:07;;;;;;;4.97;2.10;;;12.10;94.60;;;;;;5002309;28;20214;-84
2022/03/19 10:50:34;;;;;;;8.23;2.67;;;12.10;94.60;;;;;;4986021;28;20297;-83
2022/03/19 10:53:01;;;;;;;5.03;2.37;;;12.10;94.00;;;;;;4989432;28;20217;-84
2022/03/19 10:55:28;;;;;;;8.17;2.10;;;12.00;93.70;;;;;;5004463;28;20209;-81
2022/03/19 10:57:55;;;;;;;4.40;1.90;;;12.10;93.10;;;;;;5004702;28;20202;-81
2022/03/19 11:00:22;;;;;;;6.17;2.07;;;12.10;92.50;;;;;;4991630;28;20488;-81
2022/03/19 11:02:50;;;;;;;4.80;2.17;;;12.20;92.40;;;;;;5004539;28;20214;-82
2022/03/19 11:05:18;;;;;;;5.77;1.57;;;12.30;91.80;;;;;;4990144;28;20202;-82
2022/03/19 11:07:46;;;;;;;4.30;1.77;;;12.40;90.80;;;;;;5003750;28;20238;-82
2022/03/19 11:10:14;;;;;;;9.17;2.23;;;12.40;90.90;;;;;;5001173;28;20214;-82
2022/03/19 11:12:50;;;;;;;5.13;1.70;;;12.50;91.60;;;;;;5004526;28;20403;-82
2022/03/19 11:15:19;;;;;;;7.03;1.83;;;12.60;90.30;;;;;;4995981;28;20225;-81
2022/03/19 11:17:50;;;;;;;5.07;1.50;;;12.70;90.50;;;;;;5007689;28;20293;-83
2022/03/19 11:20:17;;;;;;;4.83;1.70;;;12.80;89.10;;;;;;5000399;28;20211;-83
2022/03/19 11:22:54;;;;;;;5.23;1.50;;;13.00;86.30;;;;;;4986265;28;20670;-82
2022/03/19 11:25:27;;;;;;;2.17;1.50;;;13.00;84.00;;;;;;4979669;28;20294;-82
2022/03/19 11:28:09;;;;;;;5.03;1.67;;;13.20;83.50;;;;;;5002914;28;20265;-82
2022/03/19 11:30:38;;;;;;;3.00;1.60;;;13.20;83.20;;;;;;5000545;28;20652;-84
2022/03/19 11:33:18;;;;;;;4.47;1.60;;;13.20;85.10;;;;;;5002582;28;20863;-81
2022/03/19 11:35:47;;;;;;;6.67;2.00;;;13.30;84.40;;;;;;5009913;28;20230;-83
2022/03/19 11:38:20;;;;;;;3.77;1.83;;;13.40;86.40;;;;;;4988525;28;20213;-83
2022/03/19 11:40:55;;;;;;;6.13;2.17;;;13.40;87.50;;;;;;5008793;28;20289;-81
2022/03/19 11:43:26;;;;;;;6.10;2.07;;;13.40;87.40;;;;;;4987759;28;20329;-81
2022/03/19 11:45:54;;;;;;;5.33;2.00;;;13.50;87.40;;;;;;5006589;28;20280;-83
2022/03/19 11:48:43;;;;;;;3.07;1.70;;;13.60;85.40;;;;;;5004912;28;20207;-82
2022/03/19 11:51:24;;;;;;;8.70;2.03;;;13.60;85.80;;;;;;5000953;28;20245;-83
2022/03/19 11:54:09;;;;;;;5.70;1.80;;;13.60;85.20;;;;;;5002774;28;20232;-81
2022/03/19 11:56:39;;;;;;;7.13;1.60;;;13.60;85.80;;;;;;4982952;28;20753;-84
2022/03/19 11:59:12;;;;;;;6.07;1.77;;;13.70;84.80;;;;;;5004698;28;20277;-82
2022/03/19 12:01:55;;;;;;;6.13;1.60;;;13.80;85.90;;;;;;5005398;28;20226;-81
2022/03/19 12:04:24;;;;;;;3.10;1.50;;;13.90;83.30;;;;;;5005292;28;20717;-83
2022/03/19 12:06:55;;;;;;;5.33;2.10;;;14.00;83.30;;;;;;5007065;28;20210;-82
2022/03/19 12:09:51;;;;;;;9.50;2.13;;;13.80;81.70;;;;;;4988419;28;20268;-82
2022/03/19 12:12:24;;;;;;;2.67;1.53;;;13.80;82.80;;;;;;4993204;28;20620;-83
2022/03/19 12:14:51;;;;;;;3.60;1.60;;;13.70;80.90;;;;;;5003158;28;20714;-85
2022/03/19 12:17:30;;;;;;;3.23;1.50;;;13.70;82.40;;;;;;4992748;28;20297;-84
2022/03/19 12:20:03;;;;;;;4.67;1.97;;;13.70;83.10;;;;;;5003813;28;20741;-84
2022/03/19 12:22:40;;;;;;;6.03;1.97;;;13.80;83.40;;;;;;5011170;28;20240;-83
2022/03/19 12:25:34;;;;;;;8.60;1.93;;;14.00;82.20;;;;;;4990716;28;20230;-83
2022/03/19 12:28:01;;;;;;;3.47;2.00;;;14.10;82.60;;;;;;5003267;28;20745;-84
2022/03/19 12:30:27;;;;;;;7.47;2.27;;;14.10;81.80;;;;;;5002035;28;20276;-83
2022/03/19 12:32:57;;;;;;;7.27;1.80;;;14.20;81.80;;;;;;5004991;28;20497;-82
2022/03/19 12:35:42;;;;;;;6.43;1.83;;;14.40;82.50;;;;;;5004242;28;20759;-82
2022/03/19 12:38:09;;;;;;;3.87;1.60;;;14.50;79.50;;;;;;4990105;28;20203;-84
2022/03/19 12:43:35;;;;;;;3.03;1.47;;;14.60;78.70;;;;;;5003124;28;20578;-83
2022/03/19 12:46:02;;;;;;;3.23;1.50;;;14.60;75.80;;;;;;5005683;28;20317;-84
2022/03/19 12:48:31;;;;;;;3.00;1.43;;;14.50;74.20;;;;;;4988097;28;20289;-82
2022/03/19 12:50:59;;;;;;;2.17;1.13;;;14.30;73.10;;;;;;5001823;28;20226;-83
2022/03/19 12:53:31;;;;;;;4.83;1.60;;;14.30;74.50;;;;;;5001332;28;20206;-84
2022/03/19 12:56:11;;;;;;;4.47;1.73;;;14.50;74.70;;;;;;4987076;28;20715;-83
2022/03/19 12:58:39;;;;;;;5.53;1.90;;;14.50;76.90;;;;;;4998512;28;20684;-83
2022/03/19 13:01:09;;;;;;;6.87;2.00;;;14.70;78.60;;;;;;5007088;28;20310;-83
2022/03/19 13:03:36;;;;;;;8.40;1.87;;;14.80;78.60;;;;;;5002802;28;20295;-83
2022/03/19 13:06:03;;;;;;;4.37;1.60;;;14.90;79.00;;;;;;4996667;28;20290;-85
2022/03/19 13:08:46;;;;;;;4.17;1.60;;;15.10;78.70;;;;;;5003561;28;20210;-83
2022/03/19 13:11:13;;;;;;;5.27;1.77;;;15.10;79.40;;;;;;5003684;28;20210;-83
2022/03/19 13:13:41;;;;;;;4.63;1.80;;;15.20;78.20;;;;;;4999330;28;20200;-83